Airfield :
LOGIN :

Register | Disclaimer

   EN    FR    IT 

 










Legend :    VFR   Marginal VFR   IFR   Intensive IFR   Very Intensive IFR
Visi :
Ceiling :
>= 8 km
>= 3000ft
5 to 8 km
1000 to 3000 ft
1500m to 5 km
500 to 1000 ft
800 to 1500m
200 to 500 ft
< 800m
< 200 ft
Symbols :   Thunderstorms  Fog  Heavy snow  Heavy precipitations  Wind > 20 kt
SIGMETs :     Misc.  Thunderstorms  Icing  Turbulence  Mountain Waves  Volcanic Ashes






- Airport Elevation : 194 ft
- IATA code : IEG


EPZG - Zielona Gora Babimost

CURRENT METAR :
  • 281300Z 34004KT 270V020 6000 SCT011 BKN017 BKN024 20/17 Q1021

EXPIRED METARs :
  • 281230Z VRB02KT 7000 SCT011 BKN017 BKN024 20/17 Q1021
  • 281200Z 30004KT 220V340 6000 FEW007 BKN011 OVC021 19/17 Q1021
  • 281130Z 30003KT 270V350 5000 BR SCT007 BKN017 19/17 Q1021
  • 281100Z VRB02KT 5000 BR BKN008 OVC016 19/17 Q1021
  • 281030Z VRB02KT 3600 BR BKN007 OVC014 18/17 Q1021

TAF TAF EPZG
Valid from the 28 at 12:00 until the 28 at 21:00 UTC


281130Z 2812/2821 VRB02KT 9999 OVC008
TEMPO 2812/2815 31010KT 4000 SHRA BKN013CB
PROB30
TEMPO 2812/2815 TSRA



MET'MAP, your aeronautical weather chart ! - Copyright ORBIFLY December 2007 - Disclaimer

ORBIFLY MET'MAP TEAM :

Programming & Development : Alexandra Zaïnal
Concept & original design : Baudouin d'Aumeries
Assistance for programming : Marc-Olivier Méhu
Technical & hardware support : Manuel Goepfert

Contact : metmap@orbifly.com




SOURCES & CREDITS :

   NOAA